Time;durP1;ratioP1;P1;durP2;ratioP2;P2;SDS_P1;SDS_P2;PMS_P1;PMS_P2;Temp;Humidity;BMP_temperature;BMP_pressure;BME280_temperature;BME280_humidity;BME280_pressure;Samples;Min_cycle;Max_cycle;Signal;HPM_P1;HPM_P2
2024/01/18 00:02:00;;;;;;;23.73;14.52;;;-0.30;99.90;;;;;;4943470;28;20061;-81
2024/01/18 00:04:26;;;;;;;24.05;15.57;;;-0.20;99.90;;;;;;4946311;28;20035;-81
2024/01/18 00:07:06;;;;;;;30.23;16.90;;;-0.30;99.90;;;;;;4928618;28;20405;-80
2024/01/18 00:09:35;;;;;;;27.73;17.35;;;-0.40;99.90;;;;;;4890295;28;20024;-81
2024/01/18 00:12:01;;;;;;;28.55;16.55;;;-0.30;99.90;;;;;;4924718;28;20058;-79
2024/01/18 00:14:28;;;;;;;27.90;16.25;;;-0.30;99.90;;;;;;4926483;28;20465;-79
2024/01/18 00:16:54;;;;;;;22.35;13.68;;;-0.30;99.90;;;;;;4914353;28;20031;-79
2024/01/18 00:19:20;;;;;;;25.90;16.10;;;-0.30;99.90;;;;;;4907587;28;20093;-80
2024/01/18 00:21:48;;;;;;;27.42;16.02;;;-0.30;99.90;;;;;;4939204;28;20126;-79
2024/01/18 00:24:17;;;;;;;27.52;16.15;;;-0.30;99.90;;;;;;4908506;28;20036;-80
2024/01/18 00:26:43;;;;;;;33.80;19.70;;;-0.40;99.90;;;;;;4915568;28;20031;-79
2024/01/18 00:29:11;;;;;;;29.35;17.10;;;-0.40;99.90;;;;;;4940336;28;20035;-79
2024/01/18 00:31:36;;;;;;;27.55;16.73;;;-0.50;99.90;;;;;;4906262;28;20031;-79
2024/01/18 00:34:11;;;;;;;28.42;17.33;;;-0.60;99.90;;;;;;4935559;28;20469;-79
2024/01/18 00:36:49;;;;;;;27.23;17.87;;;-0.60;99.90;;;;;;4957031;28;20031;-80
2024/01/18 00:39:18;;;;;;;25.77;15.43;;;-0.50;99.90;;;;;;4925075;28;20038;-80
2024/01/18 00:41:44;;;;;;;29.20;17.63;;;-0.60;99.90;;;;;;4941678;28;20043;-82
2024/01/18 00:44:10;;;;;;;30.25;16.85;;;-0.60;99.90;;;;;;4946292;28;20085;-81
2024/01/18 00:46:36;;;;;;;28.77;16.70;;;-0.50;99.90;;;;;;4898851;28;20050;-81
2024/01/18 00:49:01;;;;;;;23.58;15.40;;;-0.50;99.90;;;;;;4864439;28;20077;-80
2024/01/18 00:51:29;;;;;;;29.73;16.73;;;-0.60;99.90;;;;;;4890367;28;20054;-80
2024/01/18 00:54:26;;;;;;;;;;;;;;;;;;;;;
2024/01/18 00:57:10;;;;;;;33.22;18.60;;;-0.40;99.90;;;;;;4909428;28;20441;-81
2024/01/18 00:59:56;;;;;;;20.00;12.52;;;-0.50;99.90;;;;;;4921991;28;20031;-80
2024/01/18 01:02:26;;;;;;;22.60;13.27;;;-0.40;99.90;;;;;;4890380;28;20480;-80
2024/01/18 01:04:51;;;;;;;27.00;13.90;;;-0.40;99.90;;;;;;4914421;28;20024;-80
2024/01/18 01:07:17;;;;;;;23.48;13.98;;;-0.30;99.90;;;;;;4927453;28;20053;-80
2024/01/18 01:10:36;;;;;;;27.30;14.68;;;-0.30;99.90;;;;;;4920322;28;20478;-80
2024/01/18 01:13:09;;;;;;;26.83;14.82;;;-0.30;99.90;;;;;;4906155;28;20470;-78
2024/01/18 01:15:48;;;;;;;28.80;16.08;;;-0.40;99.90;;;;;;4926231;28;20035;-79
2024/01/18 01:19:07;;;;;;;22.48;14.02;;;-0.40;99.90;;;;;;4873950;28;20039;-78
2024/01/18 01:21:40;;;;;;;30.63;17.70;;;-0.30;99.90;;;;;;4881676;29;20038;-79
2024/01/18 01:24:09;;;;;;;29.58;18.17;;;-0.30;99.90;;;;;;4900646;28;20221;-79
2024/01/18 01:26:41;;;;;;;29.05;17.95;;;-0.30;99.90;;;;;;4936109;28;20501;-79
2024/01/18 01:29:10;;;;;;;26.50;16.25;;;-0.40;99.90;;;;;;4924588;28;20039;-80
2024/01/18 01:31:48;;;;;;;24.30;15.10;;;-0.40;99.90;;;;;;4924699;28;20051;-79
2024/01/18 01:34:27;;;;;;;31.63;18.35;;;-0.40;99.90;;;;;;4893707;28;20551;-78
2024/01/18 01:36:53;;;;;;;26.77;15.10;;;-0.40;99.90;;;;;;4970010;28;20039;-79
2024/01/18 01:39:19;;;;;;;28.15;18.00;;;-0.40;99.90;;;;;;4957049;28;20043;-79
2024/01/18 01:41:45;;;;;;;30.13;17.15;;;-0.40;99.90;;;;;;4954917;28;20031;-79
2024/01/18 01:44:11;;;;;;;33.70;19.67;;;-0.40;99.90;;;;;;4937564;28;20042;-78
2024/01/18 01:46:37;;;;;;;24.92;16.17;;;-0.50;99.90;;;;;;4945613;28;20488;-79
2024/01/18 01:49:04;;;;;;;28.45;15.38;;;-0.40;99.90;;;;;;4942564;28;20031;-79
2024/01/18 01:51:37;;;;;;;39.60;20.10;;;-0.40;99.90;;;;;;4955010;28;20077;-79
2024/01/18 01:54:03;;;;;;;28.25;17.05;;;-0.40;99.90;;;;;;4943847;28;20500;-80
2024/01/18 01:56:29;;;;;;;32.42;21.00;;;-0.40;99.90;;;;;;4941487;28;20128;-79
2024/01/18 01:58:57;;;;;;;32.80;20.35;;;-0.50;99.90;;;;;;4942501;28;20039;-79
2024/01/18 02:01:23;;;;;;;34.38;20.08;;;-0.40;99.90;;;;;;4947987;28;20035;-79
2024/01/18 02:03:52;;;;;;;33.47;19.17;;;-0.50;99.90;;;;;;4941338;28;20512;-80
2024/01/18 02:06:20;;;;;;;30.23;17.00;;;-0.50;99.90;;;;;;4958808;28;20117;-79
2024/01/18 02:08:46;;;;;;;25.45;16.10;;;-0.50;99.90;;;;;;4959672;28;20041;-80
2024/01/18 02:11:14;;;;;;;25.33;14.93;;;-0.50;99.90;;;;;;4942304;28;20617;-80
2024/01/18 02:13:40;;;;;;;24.42;15.02;;;-0.40;99.90;;;;;;4928332;28;20042;-79
2024/01/18 02:16:06;;;;;;;31.05;17.38;;;-0.40;99.90;;;;;;4948661;28;20083;-79
2024/01/18 02:18:31;;;;;;;33.25;18.05;;;-0.40;99.90;;;;;;4943514;28;20113;-79
2024/01/18 02:20:57;;;;;;;23.58;14.05;;;-0.40;99.90;;;;;;4939613;28;20070;-78
2024/01/18 02:23:25;;;;;;;30.38;17.90;;;-0.40;99.90;;;;;;4959174;28;20147;-79
2024/01/18 02:25:51;;;;;;;20.23;12.23;;;-0.40;99.90;;;;;;4957534;28;20035;-79
2024/01/18 02:28:19;;;;;;;23.40;14.43;;;-0.50;99.90;;;;;;4946666;28;20058;-79
2024/01/18 02:30:44;;;;;;;24.17;14.68;;;-0.40;99.90;;;;;;4944143;28;20051;-79
2024/01/18 02:33:10;;;;;;;20.02;12.77;;;-0.40;99.90;;;;;;4947285;28;20583;-80
2024/01/18 02:35:38;;;;;;;21.48;13.05;;;-0.40;99.90;;;;;;4930544;28;20547;-79
2024/01/18 02:38:04;;;;;;;19.83;12.88;;;-0.40;99.90;;;;;;4938838;28;20543;-78
2024/01/18 02:40:29;;;;;;;21.20;13.20;;;-0.30;99.90;;;;;;4920814;28;20039;-79
2024/01/18 02:42:55;;;;;;;29.75;16.58;;;-0.40;99.90;;;;;;4943967;28;20035;-79
2024/01/18 02:45:21;;;;;;;19.67;12.32;;;-0.40;99.90;;;;;;4946998;28;20035;-78
2024/01/18 02:47:47;;;;;;;14.32;9.82;;;-0.40;99.90;;;;;;4936241;28;20049;-78
2024/01/18 02:50:12;;;;;;;20.95;13.15;;;-0.40;99.90;;;;;;4910344;28;20031;-79
2024/01/18 02:52:43;;;;;;;30.00;16.67;;;-0.40;99.90;;;;;;4937152;28;20086;-80
2024/01/18 02:55:18;;;;;;;39.28;19.63;;;-0.40;99.90;;;;;;4916920;29;20143;-79
2024/01/18 02:57:44;;;;;;;32.95;20.67;;;-0.40;99.90;;;;;;4935567;28;20027;-80
2024/01/18 03:00:11;;;;;;;38.55;20.65;;;-0.40;99.90;;;;;;4939322;28;20034;-80
2024/01/18 03:02:41;;;;;;;32.17;20.42;;;-0.50;99.90;;;;;;4946879;28;20054;-80
2024/01/18 03:05:09;;;;;;;30.83;18.65;;;-0.50;99.90;;;;;;4934887;28;20988;-80
2024/01/18 03:07:45;;;;;;;33.05;21.38;;;-0.60;99.90;;;;;;4947615;28;20090;-80
2024/01/18 03:10:11;;;;;;;34.67;20.58;;;-0.60;99.90;;;;;;4916874;28;20031;-79
2024/01/18 03:12:37;;;;;;;32.78;20.45;;;-0.60;99.90;;;;;;4944837;28;20076;-79
2024/01/18 03:15:07;;;;;;;35.67;20.17;;;-0.60;99.90;;;;;;4957586;28;20385;-80
2024/01/18 03:17:33;;;;;;;37.88;21.38;;;-0.60;99.90;;;;;;4929370;28;20034;-79
2024/01/18 03:19:58;;;;;;;32.55;20.52;;;-0.50;99.90;;;;;;4939271;28;20096;-79
2024/01/18 03:22:24;;;;;;;34.10;19.92;;;-0.60;99.90;;;;;;4945996;28;20047;-80
2024/01/18 03:24:50;;;;;;;36.42;22.13;;;-0.60;99.90;;;;;;4942430;28;20037;-80
2024/01/18 03:27:18;;;;;;;26.65;17.63;;;-0.60;99.90;;;;;;4945605;28;20027;-80
2024/01/18 03:29:43;;;;;;;35.88;20.85;;;-0.60;99.90;;;;;;4959048;28;20674;-80
2024/01/18 03:32:09;;;;;;;39.63;20.33;;;-0.70;99.90;;;;;;4945534;28;20031;-80
2024/01/18 03:34:34;;;;;;;35.67;21.48;;;-0.70;99.90;;;;;;4945998;28;20030;-80
2024/01/18 03:37:00;;;;;;;32.58;18.52;;;-0.60;99.90;;;;;;4927140;28;20031;-81
2024/01/18 03:39:25;;;;;;;25.55;14.05;;;-0.60;99.90;;;;;;4943053;28;20130;-80
2024/01/18 03:41:52;;;;;;;25.77;14.07;;;-0.60;99.90;;;;;;4946076;28;20030;-80
2024/01/18 03:44:19;;;;;;;31.83;16.92;;;-0.60;99.90;;;;;;4954531;28;20115;-80
2024/01/18 03:46:45;;;;;;;35.97;20.23;;;-0.50;99.90;;;;;;4955918;28;20567;-80
2024/01/18 03:49:11;;;;;;;33.10;18.38;;;-0.50;99.90;;;;;;4958815;28;20054;-80
2024/01/18 03:51:37;;;;;;;21.83;13.75;;;-0.50;99.90;;;;;;4956468;28;20129;-80
2024/01/18 03:54:02;;;;;;;26.02;15.50;;;-0.50;99.90;;;;;;4942494;28;20083;-80
2024/01/18 03:56:28;;;;;;;32.55;20.38;;;-0.40;99.90;;;;;;4911296;28;20661;-80
2024/01/18 03:58:53;;;;;;;29.58;17.42;;;-0.40;99.90;;;;;;4944867;28;20023;-80
2024/01/18 04:01:21;;;;;;;30.60;18.40;;;-0.40;99.90;;;;;;4933604;28;20065;-80
2024/01/18 04:03:48;;;;;;;32.60;20.08;;;-0.40;99.90;;;;;;4926523;28;20200;-80
2024/01/18 04:06:15;;;;;;;27.30;16.95;;;-0.50;99.90;;;;;;4956957;28;20114;-80
2024/01/18 04:08:41;;;;;;;31.75;19.10;;;-0.50;99.90;;;;;;4934817;28;20070;-80
2024/01/18 04:11:06;;;;;;;34.53;21.90;;;-0.50;99.90;;;;;;4945173;28;20089;-80
2024/01/18 04:13:32;;;;;;;34.22;20.23;;;-0.50;99.90;;;;;;4926750;28;20035;-79
2024/01/18 04:15:57;;;;;;;32.22;19.27;;;-0.50;99.90;;;;;;4959309;28;20418;-80
2024/01/18 04:18:23;;;;;;;34.80;22.40;;;-0.50;99.90;;;;;;4944836;28;20031;-80
2024/01/18 04:20:52;;;;;;;33.75;20.98;;;-0.50;99.90;;;;;;4943933;28;20043;-80
2024/01/18 04:23:19;;;;;;;37.75;22.83;;;-0.50;99.90;;;;;;4943128;28;20031;-80
2024/01/18 04:25:46;;;;;;;34.50;20.23;;;-0.70;99.90;;;;;;4945095;28;20691;-80
2024/01/18 04:28:11;;;;;;;36.03;21.92;;;-0.60;99.90;;;;;;4944202;28;20392;-80
2024/01/18 04:30:37;;;;;;;36.22;20.00;;;-0.60;99.90;;;;;;4955453;28;20027;-80
2024/01/18 04:33:03;;;;;;;40.22;21.02;;;-0.60;99.90;;;;;;4939674;28;20075;-80
2024/01/18 04:35:28;;;;;;;37.70;22.45;;;-0.50;99.90;;;;;;4957099;28;20038;-80
2024/01/18 04:37:54;;;;;;;37.78;22.25;;;-0.60;99.90;;;;;;4944832;28;20047;-80
2024/01/18 04:40:19;;;;;;;32.70;18.80;;;-0.60;99.90;;;;;;4955511;28;20054;-80
2024/01/18 04:42:45;;;;;;;35.05;18.40;;;-0.50;99.90;;;;;;4957122;28;20038;-80
2024/01/18 04:45:11;;;;;;;28.98;17.90;;;-0.50;99.90;;;;;;4955306;28;20440;-80
2024/01/18 04:47:36;;;;;;;35.72;20.48;;;-0.40;99.90;;;;;;4945063;28;20121;-80
2024/01/18 04:50:03;;;;;;;32.63;21.10;;;-0.40;99.90;;;;;;4945295;28;20562;-81
2024/01/18 04:52:29;;;;;;;31.10;20.02;;;-0.50;99.90;;;;;;4959302;28;20080;-81
2024/01/18 04:54:56;;;;;;;30.27;18.98;;;-0.50;99.90;;;;;;4939832;28;20039;-80
2024/01/18 04:57:22;;;;;;;37.65;20.88;;;-0.50;99.90;;;;;;4955760;28;20027;-81
2024/01/18 04:59:47;;;;;;;23.45;14.20;;;-0.50;99.90;;;;;;4947128;28;20366;-80
2024/01/18 05:02:13;;;;;;;37.58;22.23;;;-0.40;99.90;;;;;;4956715;28;20032;-80
2024/01/18 05:04:39;;;;;;;32.95;20.52;;;-0.40;99.90;;;;;;4926786;28;20799;-80
2024/01/18 05:07:05;;;;;;;33.65;19.23;;;-0.40;99.90;;;;;;4914748;28;20067;-80
2024/01/18 05:09:31;;;;;;;23.27;15.30;;;-0.40;99.90;;;;;;4944984;28;20926;-80
2024/01/18 05:11:56;;;;;;;27.85;17.33;;;-0.40;99.90;;;;;;4942895;28;20027;-80
2024/01/18 05:14:22;;;;;;;34.60;20.20;;;-0.40;99.90;;;;;;4941923;28;20422;-80
2024/01/18 05:16:51;;;;;;;21.48;13.05;;;-0.40;99.90;;;;;;4942551;28;20396;-80
2024/01/18 05:19:17;;;;;;;20.98;12.82;;;-0.40;99.90;;;;;;4955267;28;20038;-80
2024/01/18 05:21:43;;;;;;;25.58;15.57;;;-0.40;99.90;;;;;;4939517;28;20035;-80
2024/01/18 05:24:10;;;;;;;21.88;14.52;;;-0.40;99.90;;;;;;4955169;28;20418;-80
2024/01/18 05:26:37;;;;;;;38.97;20.73;;;-0.40;99.90;;;;;;4946542;28;20099;-80
2024/01/18 05:29:02;;;;;;;33.15;20.60;;;-0.40;99.90;;;;;;4945822;28;20097;-80
2024/01/18 05:31:28;;;;;;;33.20;20.83;;;-0.50;99.90;;;;;;4959241;28;20035;-81
2024/01/18 05:33:56;;;;;;;31.67;19.13;;;-0.50;99.90;;;;;;4959616;28;20031;-80
2024/01/18 05:36:28;;;;;;;25.60;17.35;;;-0.50;99.90;;;;;;4943926;28;20721;-80
2024/01/18 05:38:54;;;;;;;23.90;14.85;;;-0.50;99.90;;;;;;4942282;28;20508;-80
2024/01/18 05:41:19;;;;;;;31.08;19.90;;;-0.50;99.90;;;;;;4939962;28;20039;-81
2024/01/18 05:43:45;;;;;;;40.55;20.55;;;-0.50;99.90;;;;;;4963103;28;20405;-81
2024/01/18 05:46:10;;;;;;;22.73;13.77;;;-0.60;99.90;;;;;;4955845;28;20385;-81
2024/01/18 05:48:36;;;;;;;24.92;15.05;;;-0.50;99.90;;;;;;4959384;28;22324;-81
2024/01/18 05:51:02;;;;;;;38.25;21.38;;;-0.50;99.90;;;;;;4948579;28;20039;-81
2024/01/18 05:53:29;;;;;;;23.63;14.60;;;-0.50;99.90;;;;;;4961635;28;20043;-80
2024/01/18 05:55:55;;;;;;;29.80;18.85;;;-0.50;99.90;;;;;;4929799;28;20074;-81
2024/01/18 05:58:20;;;;;;;21.65;13.57;;;-0.60;99.90;;;;;;4940943;28;20070;-81
2024/01/18 06:00:46;;;;;;;23.92;14.10;;;-0.60;99.90;;;;;;4931919;28;20071;-81
2024/01/18 06:03:11;;;;;;;22.70;14.65;;;-0.60;99.90;;;;;;4953873;28;20459;-81
2024/01/18 06:05:37;;;;;;;30.52;16.95;;;-0.60;99.90;;;;;;4931469;28;20039;-80
2024/01/18 06:08:03;;;;;;;18.08;11.95;;;-0.60;99.90;;;;;;4957950;28;20037;-80
2024/01/18 06:10:28;;;;;;;19.50;12.90;;;-0.60;99.90;;;;;;4945520;28;20069;-80
2024/01/18 06:12:54;;;;;;;20.30;12.20;;;-0.60;99.90;;;;;;4944161;28;20042;-80
2024/01/18 06:15:19;;;;;;;20.50;13.52;;;-0.60;99.90;;;;;;4943910;28;20070;-80
2024/01/18 06:17:46;;;;;;;24.38;13.98;;;-0.60;99.90;;;;;;4931789;28;20031;-80
2024/01/18 06:20:14;;;;;;;19.33;11.75;;;-0.50;99.90;;;;;;4955391;28;20027;-80
2024/01/18 06:22:40;;;;;;;19.75;11.85;;;-0.50;99.90;;;;;;4947157;28;20042;-80
2024/01/18 06:25:06;;;;;;;19.52;12.35;;;-0.50;99.90;;;;;;4942064;28;20105;-80
2024/01/18 06:27:33;;;;;;;18.25;11.20;;;-0.50;99.90;;;;;;4948782;28;20057;-80
2024/01/18 06:29:59;;;;;;;22.45;14.85;;;-0.60;99.90;;;;;;4927143;28;20042;-81
2024/01/18 06:32:25;;;;;;;21.67;13.25;;;-0.60;99.90;;;;;;4944554;28;20042;-79
2024/01/18 06:34:51;;;;;;;21.05;12.25;;;-0.60;99.90;;;;;;4956247;28;20114;-80
2024/01/18 06:37:16;;;;;;;23.67;13.95;;;-0.60;99.90;;;;;;4941732;28;20049;-81
2024/01/18 06:39:44;;;;;;;25.42;14.45;;;-0.50;99.90;;;;;;4935734;28;20031;-81
2024/01/18 06:42:11;;;;;;;25.33;16.20;;;-0.50;99.90;;;;;;4951972;28;20043;-80
2024/01/18 06:44:36;;;;;;;26.40;14.23;;;-0.50;99.90;;;;;;4930479;28;20133;-79
2024/01/18 06:47:02;;;;;;;22.48;13.43;;;-0.60;99.90;;;;;;4942858;28;20118;-80
2024/01/18 06:49:28;;;;;;;22.95;13.73;;;-0.50;99.90;;;;;;4892484;28;20605;-80
2024/01/18 06:51:53;;;;;;;18.75;12.15;;;-0.60;99.90;;;;;;4957802;28;20085;-80
2024/01/18 06:54:21;;;;;;;33.22;18.30;;;-0.70;99.90;;;;;;4958582;28;20038;-81
2024/01/18 06:56:47;;;;;;;22.48;12.85;;;-0.80;99.90;;;;;;4942289;28;20118;-80
2024/01/18 06:59:14;;;;;;;27.30;15.82;;;-0.80;99.90;;;;;;4958328;28;20118;-80
2024/01/18 07:01:40;;;;;;;23.40;12.77;;;-0.70;99.90;;;;;;4947316;28;20434;-80
2024/01/18 07:04:05;;;;;;;20.88;12.93;;;-0.70;99.90;;;;;;4929908;28;20145;-80
2024/01/18 07:06:31;;;;;;;23.02;13.77;;;-0.70;99.90;;;;;;4931669;28;20043;-80
2024/01/18 07:08:56;;;;;;;23.83;14.63;;;-0.80;99.90;;;;;;4943344;28;20043;-80
2024/01/18 07:11:22;;;;;;;25.17;15.70;;;-0.70;99.90;;;;;;4942097;28;20116;-81
2024/01/18 07:13:47;;;;;;;27.08;15.38;;;-0.80;99.90;;;;;;4945743;28;20461;-80
2024/01/18 07:16:13;;;;;;;24.58;14.52;;;-0.80;99.90;;;;;;4942684;28;20053;-81
2024/01/18 07:18:45;;;;;;;31.08;17.85;;;-0.90;99.90;;;;;;4943910;28;20035;-80
2024/01/18 07:21:10;;;;;;;35.92;20.15;;;-1.00;99.90;;;;;;4932831;28;20050;-81
2024/01/18 07:23:36;;;;;;;23.70;14.80;;;-1.10;99.90;;;;;;4939891;28;20162;-81
2024/01/18 07:26:01;;;;;;;22.33;13.88;;;-1.10;99.90;;;;;;4958287;28;20066;-81
2024/01/18 07:28:27;;;;;;;34.05;19.02;;;-1.20;99.90;;;;;;4942569;28;20518;-80
2024/01/18 07:30:52;;;;;;;22.77;14.32;;;-1.20;99.90;;;;;;4911508;28;20039;-81
2024/01/18 07:33:18;;;;;;;30.80;19.30;;;-1.20;99.90;;;;;;4929448;28;20040;-80
2024/01/18 07:35:44;;;;;;;26.45;16.73;;;-1.30;99.90;;;;;;4942626;28;20034;-79
2024/01/18 07:38:10;;;;;;;36.35;18.35;;;-1.40;99.90;;;;;;4944834;28;20053;-80
2024/01/18 07:40:35;;;;;;;24.33;14.13;;;-1.30;99.90;;;;;;4928852;28;20117;-80
2024/01/18 07:43:07;;;;;;;21.25;13.43;;;-1.40;99.90;;;;;;4944804;28;20034;-80
2024/01/18 07:45:33;;;;;;;18.42;11.52;;;-1.40;99.90;;;;;;4942199;28;20449;-80
2024/01/18 07:47:58;;;;;;;23.02;14.02;;;-1.40;99.90;;;;;;4942241;28;20050;-80
2024/01/18 07:50:24;;;;;;;16.83;10.02;;;-1.40;99.90;;;;;;4942257;28;20078;-80
2024/01/18 07:52:49;;;;;;;18.27;10.95;;;-1.40;99.90;;;;;;4941833;28;20034;-81
2024/01/18 07:55:16;;;;;;;17.05;10.98;;;-1.40;99.90;;;;;;4944651;28;20039;-81
2024/01/18 07:57:41;;;;;;;24.70;11.38;;;-1.40;99.90;;;;;;4929008;28;20501;-80
2024/01/18 08:00:08;;;;;;;19.50;10.82;;;-1.50;99.90;;;;;;4955660;28;20046;-80
2024/01/18 08:02:34;;;;;;;20.67;11.27;;;-1.50;99.90;;;;;;4957848;28;20043;-81
2024/01/18 08:05:00;;;;;;;16.95;10.40;;;-1.50;99.90;;;;;;4944080;28;20054;-81
2024/01/18 08:07:28;;;;;;;17.77;11.18;;;-1.60;99.90;;;;;;4933982;28;20041;-80
2024/01/18 08:09:54;;;;;;;17.45;10.68;;;-1.60;99.90;;;;;;4913748;28;20531;-80
2024/01/18 08:12:20;;;;;;;22.75;12.82;;;-1.60;99.90;;;;;;4945590;28;20027;-81
2024/01/18 08:14:46;;;;;;;16.80;10.82;;;-1.60;99.90;;;;;;4939724;28;20030;-81
2024/01/18 08:17:12;;;;;;;18.10;11.07;;;-1.60;99.90;;;;;;4955659;28;20037;-81
2024/01/18 08:19:39;;;;;;;34.75;21.65;;;-1.60;99.90;;;;;;4944438;28;20035;-80
2024/01/18 08:22:04;;;;;;;42.08;22.02;;;-1.50;99.90;;;;;;4914038;28;20031;-82
2024/01/18 08:24:30;;;;;;;27.60;14.63;;;-1.40;99.90;;;;;;4942024;28;20532;-81
2024/01/18 08:26:55;;;;;;;27.23;16.38;;;-1.50;99.90;;;;;;4939582;28;20026;-82
2024/01/18 08:29:21;;;;;;;25.55;16.73;;;-1.50;99.90;;;;;;4946210;28;20101;-81
2024/01/18 08:31:47;;;;;;;19.85;11.38;;;-1.50;99.90;;;;;;4944365;28;20041;-80
2024/01/18 08:34:13;;;;;;;26.40;14.93;;;-1.60;99.90;;;;;;4943400;28;20031;-80
2024/01/18 08:36:39;;;;;;;24.38;13.82;;;-1.50;99.90;;;;;;4932814;28;20781;-79
2024/01/18 08:39:07;;;;;;;23.00;13.45;;;-1.50;99.90;;;;;;4943683;28;20054;-80
2024/01/18 08:41:33;;;;;;;26.25;15.82;;;-1.50;99.90;;;;;;4943253;28;20408;-81
2024/01/18 08:43:59;;;;;;;24.77;15.40;;;-1.50;99.90;;;;;;4938397;28;20134;-80
2024/01/18 08:46:26;;;;;;;30.33;16.65;;;-1.50;99.90;;;;;;4936904;28;20292;-80
2024/01/18 08:48:52;;;;;;;23.88;12.95;;;-1.60;99.90;;;;;;4943558;28;20536;-80
2024/01/18 08:51:26;;;;;;;28.77;15.90;;;-1.60;99.90;;;;;;4944419;28;20097;-81
2024/01/18 08:53:55;;;;;;;22.20;13.52;;;-1.40;99.90;;;;;;4939044;28;20035;-80
2024/01/18 08:56:20;;;;;;;29.42;17.40;;;-1.50;99.90;;;;;;4942824;28;20038;-81
2024/01/18 08:58:46;;;;;;;26.25;15.40;;;-1.50;99.90;;;;;;4958432;28;20464;-81
2024/01/18 09:01:13;;;;;;;22.60;13.98;;;-1.30;99.90;;;;;;4940912;28;20108;-81
2024/01/18 09:03:39;;;;;;;26.02;14.45;;;-1.20;99.90;;;;;;4956737;28;20776;-81
2024/01/18 09:06:05;;;;;;;23.65;14.60;;;-1.40;99.90;;;;;;4939586;28;20118;-80
2024/01/18 09:08:31;;;;;;;23.08;14.60;;;-1.40;99.90;;;;;;4941517;28;20558;-80
2024/01/18 09:10:56;;;;;;;22.48;14.10;;;-1.20;99.90;;;;;;4946207;28;20142;-79
2024/01/18 09:13:22;;;;;;;23.27;14.18;;;-1.00;99.90;;;;;;4947899;28;20031;-80
2024/01/18 09:15:50;;;;;;;30.75;17.13;;;-1.10;99.90;;;;;;4944156;28;20050;-80
2024/01/18 09:18:15;;;;;;;35.80;19.10;;;-1.20;99.90;;;;;;4943560;28;20049;-80
2024/01/18 09:20:45;;;;;;;27.17;16.33;;;-1.30;99.90;;;;;;4941508;28;20392;-80
2024/01/18 09:23:12;;;;;;;28.60;16.35;;;-1.30;99.90;;;;;;4943368;28;20031;-80
2024/01/18 09:25:41;;;;;;;23.77;14.77;;;-1.10;99.90;;;;;;4930829;28;20038;-81
2024/01/18 09:28:10;;;;;;;26.88;15.07;;;-1.10;99.90;;;;;;4940724;28;20114;-81
2024/01/18 09:30:36;;;;;;;28.70;16.98;;;-1.00;99.90;;;;;;4956754;28;20114;-81
2024/01/18 09:33:02;;;;;;;39.92;22.88;;;-1.00;99.90;;;;;;4944503;28;20039;-81
2024/01/18 09:35:28;;;;;;;36.05;22.95;;;-1.00;99.90;;;;;;4943773;28;20090;-81
2024/01/18 09:37:56;;;;;;;33.60;19.77;;;-1.40;99.90;;;;;;4944159;28;20063;-81
2024/01/18 09:40:24;;;;;;;38.80;23.52;;;-1.30;99.90;;;;;;4946726;28;20035;-80
2024/01/18 09:42:49;;;;;;;28.27;16.80;;;-1.50;99.90;;;;;;4913970;28;20457;-81
2024/01/18 09:45:20;;;;;;;28.38;16.60;;;-1.60;99.90;;;;;;4919746;28;20031;-80
2024/01/18 09:47:45;;;;;;;28.30;15.82;;;-1.30;99.90;;;;;;4957057;28;20034;-80
2024/01/18 09:50:11;;;;;;;32.53;18.65;;;-1.20;99.90;;;;;;4928583;28;20130;-80
2024/01/18 09:52:40;;;;;;;23.48;15.20;;;-1.00;99.90;;;;;;4928426;28;20102;-81
2024/01/18 09:55:08;;;;;;;26.20;16.92;;;-0.80;99.90;;;;;;4942604;28;20031;-80
2024/01/18 09:57:34;;;;;;;28.63;17.02;;;-0.80;99.90;;;;;;4944813;28;20050;-80
2024/01/18 10:00:02;;;;;;;26.90;17.17;;;-0.70;99.90;;;;;;4940740;28;20039;-80
2024/01/18 10:02:28;;;;;;;29.90;17.85;;;-0.60;99.90;;;;;;4942794;28;20023;-80
2024/01/18 10:05:00;;;;;;;26.55;15.98;;;-0.70;99.90;;;;;;4952345;28;20518;-81
2024/01/18 10:07:28;;;;;;;28.23;17.90;;;-0.70;99.90;;;;;;4913383;28;20429;-80
2024/01/18 10:09:56;;;;;;;27.02;15.30;;;-0.60;99.90;;;;;;4927848;28;20146;-80
2024/01/18 10:12:34;;;;;;;24.55;17.35;;;-0.50;99.90;;;;;;4960057;28;20622;-80
2024/01/18 10:15:17;;;;;;;23.95;13.63;;;-0.50;99.90;;;;;;4921868;28;20369;-80
2024/01/18 10:17:42;;;;;;;27.23;15.60;;;-0.40;99.90;;;;;;4930708;28;20026;-80
2024/01/18 10:20:13;;;;;;;25.52;16.85;;;-0.40;99.90;;;;;;4955535;28;20041;-81
2024/01/18 10:22:40;;;;;;;23.15;14.52;;;-0.20;99.90;;;;;;4940479;28;20101;-81
2024/01/18 10:25:13;;;;;;;24.20;15.63;;;-0.30;99.90;;;;;;4943605;28;20588;-80
2024/01/18 10:27:39;;;;;;;34.97;17.35;;;-0.20;99.90;;;;;;4942989;28;20496;-81
2024/01/18 10:30:07;;;;;;;28.85;16.33;;;0.00;99.90;;;;;;4931931;28;20084;-80
2024/01/18 10:32:33;;;;;;;35.05;20.05;;;0.20;99.90;;;;;;4944872;28;20096;-80
2024/01/18 10:35:01;;;;;;;23.92;16.25;;;0.20;99.90;;;;;;4956293;28;20042;-81
2024/01/18 10:37:27;;;;;;;22.05;13.95;;;0.20;99.90;;;;;;4920576;28;20034;-80
2024/01/18 10:39:52;;;;;;;26.40;15.88;;;0.30;99.90;;;;;;4937526;28;20039;-81
2024/01/18 10:42:18;;;;;;;27.92;16.08;;;0.30;99.90;;;;;;4911473;28;20047;-81
2024/01/18 10:44:47;;;;;;;26.17;17.08;;;0.50;99.90;;;;;;4906037;29;20106;-81
2024/01/18 10:47:13;;;;;;;27.27;17.73;;;0.50;99.90;;;;;;4938805;28;20035;-81
2024/01/18 10:49:43;;;;;;;26.52;16.08;;;0.60;99.90;;;;;;4959486;28;20078;-80
2024/01/18 10:52:11;;;;;;;38.90;21.55;;;0.90;99.90;;;;;;4957007;28;20469;-80
2024/01/18 10:54:48;;;;;;;31.50;18.88;;;0.80;99.90;;;;;;4932428;28;20042;-82
2024/01/18 10:57:15;;;;;;;33.08;17.13;;;0.60;99.90;;;;;;4942288;28;20039;-81
2024/01/18 10:59:41;;;;;;;24.65;14.70;;;0.60;99.90;;;;;;4950286;28;20035;-80
2024/01/18 11:02:09;;;;;;;20.80;14.68;;;0.50;99.90;;;;;;4944497;28;20082;-81
2024/01/18 11:04:34;;;;;;;24.77;14.80;;;0.50;99.90;;;;;;4941820;28;20500;-81
2024/01/18 11:07:00;;;;;;;22.70;13.30;;;0.40;99.90;;;;;;4930887;28;20035;-81
2024/01/18 11:09:26;;;;;;;20.58;12.23;;;0.60;99.90;;;;;;4931497;28;20043;-81
2024/01/18 11:11:53;;;;;;;19.80;12.48;;;0.90;99.90;;;;;;4929038;28;20073;-81
2024/01/18 11:14:19;;;;;;;17.13;11.07;;;1.00;99.90;;;;;;4944067;28;20146;-81
2024/01/18 11:16:44;;;;;;;16.92;10.95;;;1.40;99.90;;;;;;4928797;28;20102;-81
2024/01/18 11:19:10;;;;;;;16.85;11.63;;;1.60;99.90;;;;;;4933358;28;20035;-81
2024/01/18 11:21:45;;;;;;;19.23;11.80;;;1.40;99.90;;;;;;4942570;28;20031;-81
2024/01/18 11:24:11;;;;;;;18.80;11.30;;;1.20;99.90;;;;;;4927020;28;20043;-81
2024/01/18 11:26:36;;;;;;;16.55;10.13;;;1.00;99.90;;;;;;4931937;28;20498;-80
2024/01/18 11:29:26;;;;;;;15.43;10.02;;;1.20;99.90;;;;;;4943399;28;20040;-81
2024/01/18 11:31:52;;;;;;;14.27;8.52;;;1.60;99.90;;;;;;4929751;28;20059;-81
2024/01/18 11:34:37;;;;;;;18.60;9.27;;;1.60;99.90;;;;;;4954498;28;20177;-80
2024/01/18 11:37:12;;;;;;;12.38;8.25;;;2.00;99.90;;;;;;4945579;28;20066;-81
2024/01/18 11:39:59;;;;;;;14.07;8.13;;;1.70;99.90;;;;;;4956965;28;20062;-81
2024/01/18 11:42:26;;;;;;;11.45;7.45;;;1.80;99.90;;;;;;4925990;28;20102;-81
2024/01/18 11:45:22;;;;;;;12.18;8.20;;;2.10;99.90;;;;;;4942620;28;20031;-80
2024/01/18 11:47:48;;;;;;;12.25;7.13;;;2.20;99.90;;;;;;4936948;28;20085;-80
2024/01/18 11:50:15;;;;;;;12.35;7.78;;;2.60;99.90;;;;;;4940706;28;20031;-80
2024/01/18 11:52:42;;;;;;;8.70;5.88;;;3.10;99.90;;;;;;4946311;28;20065;-80
2024/01/18 11:55:17;;;;;;;8.40;5.45;;;2.90;99.90;;;;;;4958114;28;20038;-80
2024/01/18 11:57:46;;;;;;;9.02;4.80;;;2.80;99.90;;;;;;4937204;28;20043;-80
2024/01/18 12:00:15;;;;;;;8.18;4.75;;;2.50;99.90;;;;;;4942385;28;20396;-80
2024/01/18 12:02:43;;;;;;;6.30;3.47;;;2.80;99.90;;;;;;4945345;28;20082;-80
2024/01/18 12:05:09;;;;;;;6.75;4.18;;;3.10;99.90;;;;;;4938769;28;20035;-80
2024/01/18 12:07:35;;;;;;;10.43;3.67;;;2.30;99.90;;;;;;4957257;28;20050;-80
2024/01/18 12:10:01;;;;;;;6.40;3.58;;;1.90;99.90;;;;;;4950786;28;20035;-79
2024/01/18 12:12:26;;;;;;;7.70;3.83;;;2.20;99.90;;;;;;4960170;28;20022;-79
2024/01/18 12:14:53;;;;;;;6.45;3.90;;;3.00;99.90;;;;;;4940274;28;20027;-80
2024/01/18 12:17:18;;;;;;;7.00;3.78;;;3.40;99.90;;;;;;4944584;28;20375;-80
2024/01/18 12:19:45;;;;;;;5.93;3.78;;;3.50;99.90;;;;;;4956471;28;20095;-80
2024/01/18 12:22:12;;;;;;;6.57;3.85;;;3.80;99.90;;;;;;4944635;28;20527;-79
2024/01/18 12:24:39;;;;;;;6.22;3.13;;;3.60;99.90;;;;;;4957675;28;20515;-80
2024/01/18 12:27:05;;;;;;;7.93;2.95;;;3.80;99.90;;;;;;4943196;28;20138;-80
2024/01/18 12:29:35;;;;;;;3.95;3.08;;;3.60;99.90;;;;;;4953911;28;20082;-80
2024/01/18 12:32:02;;;;;;;8.23;4.25;;;4.10;99.90;;;;;;4941340;28;20035;-80
2024/01/18 12:34:32;;;;;;;8.02;3.28;;;4.80;99.90;;;;;;4943683;28;20058;-80